createdAt,value
2022-10-18T00:00:41.429Z,7.75
2022-10-18T00:02:03.084Z,7.75
2022-10-18T00:03:04.766Z,7.61
2022-10-18T00:04:06.457Z,7.77
2022-10-18T00:05:08.475Z,7.84
2022-10-18T00:06:10.715Z,7.71
2022-10-18T00:07:12.573Z,7.74
2022-10-18T00:08:14.933Z,7.98
2022-10-18T00:09:16.624Z,7.82
2022-10-18T00:10:18.678Z,7.74
2022-10-18T00:11:20.812Z,7.88
2022-10-18T00:12:22.788Z,7.95
2022-10-18T00:13:24.474Z,8.23
2022-10-18T00:14:26.170Z,8.17
2022-10-18T00:15:27.987Z,7.94
2022-10-18T00:16:29.631Z,8.16
2022-10-18T00:17:31.623Z,7.67
2022-10-18T00:18:33.499Z,8.03
2022-10-18T00:19:35.195Z,7.83
2022-10-18T00:20:36.794Z,7.86
2022-10-18T00:21:38.494Z,7.77
2022-10-18T00:22:41.782Z,7.31
2022-10-18T00:23:44.888Z,7.58
2022-10-18T00:24:46.655Z,7.89
2022-10-18T00:25:48.263Z,7.92
2022-10-18T00:26:49.977Z,7.88
2022-10-18T00:27:52.521Z,7.18
2022-10-18T00:29:02.158Z,7.38
2022-10-18T00:30:04.973Z,7.79
2022-10-18T00:31:19.261Z,7.68
2022-10-18T00:32:21.015Z,7.51
2022-10-18T00:33:23.015Z,7.30
2022-10-18T00:34:24.725Z,7.93
2022-10-18T00:35:26.457Z,7.69
2022-10-18T00:36:31.214Z,6.81
2022-10-18T00:37:33.678Z,7.71
2022-10-18T00:38:36.832Z,8.13
2022-10-18T00:39:38.674Z,7.39
2022-10-18T00:40:40.345Z,7.61
2022-10-18T00:41:42.170Z,7.70
2022-10-18T00:42:43.785Z,7.19
2022-10-18T00:44:07.931Z,7.70
2022-10-18T00:45:18.010Z,7.58
2022-10-18T00:46:19.763Z,7.53
2022-10-18T00:47:21.476Z,7.44
2022-10-18T00:48:23.637Z,7.65
2022-10-18T00:49:41.229Z,7.55
2022-10-18T00:50:43.501Z,7.65
2022-10-18T00:51:48.761Z,7.40
2022-10-18T00:52:56.800Z,7.32
2022-10-18T00:53:58.897Z,7.64
2022-10-18T00:55:00.958Z,7.59
2022-10-18T00:56:02.814Z,7.28
2022-10-18T00:57:07.064Z,7.56
2022-10-18T00:58:11.485Z,7.62
2022-10-18T00:59:17.095Z,8.01
2022-10-18T01:00:18.891Z,7.73
2022-10-18T01:01:23.187Z,7.20
2022-10-18T01:02:28.526Z,7.43
2022-10-18T01:03:31.205Z,7.69
2022-10-18T01:04:33.594Z,7.88
2022-10-18T01:05:46.652Z,7.74
2022-10-18T01:07:25.578Z,7.04
2022-10-18T01:08:55.620Z,7.04
2022-10-18T01:10:20.025Z,7.31
2022-10-18T01:12:01.659Z,7.84
2022-10-18T01:13:28.816Z,7.55
2022-10-18T01:14:42.350Z,7.26
2022-10-18T01:15:59.235Z,7.55
2022-10-18T01:17:19.916Z,7.89
2022-10-18T01:18:41.243Z,7.09
2022-10-18T01:20:01.638Z,7.53
2022-10-18T01:21:03.151Z,7.72
2022-10-18T01:22:27.806Z,7.58
2022-10-18T01:24:15.381Z,7.87
2022-10-18T01:25:41.297Z,7.50
2022-10-18T01:27:05.078Z,7.68
2022-10-18T01:28:18.086Z,7.22
2022-10-18T01:29:51.902Z,7.85
2022-10-18T01:31:01.312Z,7.93
2022-10-18T01:32:15.525Z,7.71
2022-10-18T01:33:32.598Z,7.29
2022-10-18T01:34:38.425Z,7.49
2022-10-18T01:35:47.866Z,7.83
2022-10-18T01:36:56.529Z,7.63
2022-10-18T01:38:03.027Z,7.09
2022-10-18T01:39:13.557Z,7.34
2022-10-18T01:40:20.773Z,7.32
2022-10-18T01:41:26.610Z,7.24
2022-10-18T01:42:28.438Z,7.47
2022-10-18T01:43:32.873Z,7.78
2022-10-18T01:44:38.302Z,7.32
2022-10-18T01:45:41.597Z,7.85
2022-10-18T01:46:46.820Z,7.69
2022-10-18T01:47:50.011Z,7.46
2022-10-18T01:48:54.181Z,7.61
2022-10-18T01:50:02.829Z,7.36
2022-10-18T01:51:05.291Z,6.92
2022-10-18T01:53:30.842Z,7.39
2022-10-18T01:54:39.401Z,7.96
2022-10-18T01:55:51.097Z,7.22
2022-10-18T01:57:05.933Z,6.94
2022-10-18T01:58:19.955Z,7.63
2022-10-18T01:59:33.426Z,7.55
2022-10-18T02:00:44.357Z,7.69
2022-10-18T02:02:02.964Z,7.53
2022-10-18T02:03:21.025Z,7.20
2022-10-18T02:04:49.527Z,7.88
2022-10-18T02:06:20.164Z,7.56
2022-10-18T02:07:42.405Z,8.26
2022-10-18T02:08:59.905Z,7.60
2022-10-18T02:10:45.707Z,7.71
2022-10-18T02:11:53.959Z,7.96
2022-10-18T02:12:58.280Z,7.80
2022-10-18T02:14:07.539Z,7.00
2022-10-18T02:15:14.854Z,7.59
2022-10-18T02:16:31.153Z,7.64
2022-10-18T02:17:33.352Z,7.14
2022-10-18T02:18:41.626Z,7.61
2022-10-18T02:19:47.969Z,7.80
2022-10-18T02:20:51.655Z,7.61
2022-10-18T02:21:56.054Z,6.98
2022-10-18T02:23:01.693Z,7.21
2022-10-18T02:24:06.892Z,7.70
2022-10-18T02:25:17.046Z,8.13
2022-10-18T02:26:18.816Z,7.44
2022-10-18T02:27:21.533Z,7.55
2022-10-18T02:29:31.936Z,8.66
2022-10-18T02:30:45.396Z,6.85
2022-10-18T02:31:51.164Z,7.31
2022-10-18T02:33:07.289Z,8.17
2022-10-18T02:34:20.748Z,7.79
2022-10-18T02:35:30.883Z,7.49
2022-10-18T02:36:43.629Z,7.55
2022-10-18T02:37:50.381Z,7.58
2022-10-18T02:38:59.237Z,7.23
2022-10-18T02:40:02.800Z,8.04
2022-10-18T02:41:04.528Z,7.70
2022-10-18T02:42:09.662Z,8.25
2022-10-18T02:43:11.679Z,7.35
2022-10-18T02:44:13.320Z,7.63
2022-10-18T02:45:15.901Z,7.47
2022-10-18T02:46:18.250Z,7.41
2022-10-18T02:47:19.964Z,7.90
2022-10-18T02:48:21.603Z,7.62
2022-10-18T02:49:23.220Z,7.22
2022-10-18T02:50:24.901Z,7.86
2022-10-18T02:51:26.799Z,7.41
2022-10-18T02:52:28.454Z,7.21
2022-10-18T02:53:30.075Z,7.97
2022-10-18T02:54:31.969Z,8.42
2022-10-18T02:55:33.662Z,8.43
2022-10-18T02:56:36.165Z,8.40
2022-10-18T02:57:37.969Z,8.17
2022-10-18T02:58:39.573Z,8.36
2022-10-18T02:59:41.604Z,7.98
2022-10-18T03:00:43.262Z,8.79
2022-10-18T03:01:45.395Z,8.60
2022-10-18T03:02:49.085Z,8.73
2022-10-18T03:03:50.735Z,7.89
2022-10-18T03:04:52.435Z,7.97
2022-10-18T03:05:54.034Z,7.70
2022-10-18T03:06:55.755Z,8.24
2022-10-18T03:07:58.014Z,7.89
2022-10-18T03:08:59.664Z,8.35
2022-10-18T03:10:01.372Z,7.75
2022-10-18T03:11:03.020Z,7.11
2022-10-18T03:12:04.805Z,7.88
2022-10-18T03:13:06.407Z,8.07
2022-10-18T03:14:08.063Z,8.17
2022-10-18T03:15:10.144Z,7.24
2022-10-18T03:16:12.833Z,8.02
2022-10-18T03:17:14.532Z,8.23
2022-10-18T03:18:16.420Z,7.88
2022-10-18T03:19:18.044Z,8.38
2022-10-18T03:20:19.884Z,7.77
2022-10-18T03:21:21.517Z,7.59
2022-10-18T03:22:25.210Z,8.24
2022-10-18T03:23:27.091Z,8.48
2022-10-18T03:24:28.690Z,7.60
2022-10-18T03:25:30.331Z,8.07
2022-10-18T03:26:32.390Z,8.34
2022-10-18T03:27:34.264Z,7.92
2022-10-18T03:28:36.343Z,7.62
2022-10-18T03:29:37.978Z,7.78
2022-10-18T03:30:39.671Z,8.13
2022-10-18T03:31:41.262Z,7.77
2022-10-18T03:32:42.978Z,8.58
2022-10-18T03:33:44.636Z,8.00
2022-10-18T03:34:46.252Z,8.38
2022-10-18T03:35:47.834Z,7.91
2022-10-18T03:36:49.530Z,7.64
2022-10-18T03:37:51.160Z,8.59
2022-10-18T03:38:52.880Z,8.34
2022-10-18T03:39:54.478Z,7.95
2022-10-18T03:40:56.144Z,8.30
2022-10-18T03:41:57.787Z,7.93
2022-10-18T03:42:59.457Z,7.92
2022-10-18T03:44:01.138Z,8.23
2022-10-18T03:45:02.909Z,8.26
2022-10-18T03:46:04.872Z,8.76
2022-10-18T03:47:06.485Z,7.87
2022-10-18T03:48:08.183Z,8.14
2022-10-18T03:49:10.470Z,8.27
2022-10-18T03:50:12.176Z,8.08
2022-10-18T03:51:13.784Z,8.44
2022-10-18T03:52:15.424Z,8.20
2022-10-18T03:53:17.711Z,9.21
2022-10-18T03:54:19.509Z,8.45
2022-10-18T03:55:21.643Z,8.07
2022-10-18T03:56:23.323Z,8.99
2022-10-18T03:57:25.021Z,8.91
2022-10-18T03:58:26.652Z,8.10
2022-10-18T03:59:28.498Z,8.13
2022-10-18T04:00:30.338Z,8.18
2022-10-18T04:01:32.145Z,7.56
2022-10-18T04:02:34.117Z,7.75
2022-10-18T04:03:35.881Z,7.78
2022-10-18T04:04:37.714Z,8.22
2022-10-18T04:05:39.341Z,8.47
2022-10-18T04:06:41.698Z,8.10
2022-10-18T04:07:43.349Z,7.98
2022-10-18T04:08:44.965Z,7.65
2022-10-18T04:09:46.809Z,8.55
2022-10-18T04:10:49.240Z,7.86
2022-10-18T04:11:51.201Z,7.89
2022-10-18T04:12:52.898Z,8.23
2022-10-18T04:13:54.529Z,8.00
2022-10-18T04:14:56.318Z,8.58
2022-10-18T04:15:57.931Z,8.79
2022-10-18T04:16:59.566Z,7.97
2022-10-18T04:18:01.606Z,7.61
2022-10-18T04:19:03.855Z,8.05
2022-10-18T04:20:06.014Z,8.09
2022-10-18T04:21:07.636Z,8.27
2022-10-18T04:22:11.873Z,8.40
2022-10-18T04:23:13.520Z,8.46
2022-10-18T04:24:17.116Z,8.20
2022-10-18T04:25:18.920Z,8.15
2022-10-18T04:26:20.614Z,7.71
2022-10-18T04:27:22.541Z,8.24
2022-10-18T04:28:24.420Z,7.48
2022-10-18T04:29:26.083Z,7.82
2022-10-18T04:30:28.101Z,7.94
2022-10-18T04:31:29.748Z,8.65
2022-10-18T04:32:31.368Z,8.91
2022-10-18T04:33:33.006Z,8.47
2022-10-18T04:34:34.733Z,8.39
2022-10-18T04:35:36.759Z,8.18
2022-10-18T04:36:38.446Z,8.16
2022-10-18T04:37:40.161Z,8.35
2022-10-18T04:38:41.854Z,7.81
2022-10-18T04:39:49.853Z,7.55
2022-10-18T04:40:54.587Z,8.12
2022-10-18T04:41:56.200Z,8.27
2022-10-18T04:42:57.846Z,8.51
2022-10-18T04:43:59.754Z,7.76
2022-10-18T04:45:01.514Z,7.90
2022-10-18T04:46:03.432Z,8.57
2022-10-18T04:47:05.144Z,8.87
2022-10-18T04:48:06.961Z,8.60
2022-10-18T04:49:08.585Z,8.55
2022-10-18T04:50:10.205Z,8.24
2022-10-18T04:51:12.063Z,8.49
2022-10-18T04:52:13.714Z,8.32
2022-10-18T04:53:16.630Z,8.21
2022-10-18T04:54:18.281Z,8.18
2022-10-18T04:55:20.623Z,8.21
2022-10-18T04:56:24.022Z,7.86
2022-10-18T04:57:25.670Z,8.34
2022-10-18T04:58:27.513Z,8.69
2022-10-18T04:59:29.221Z,8.57
2022-10-18T05:00:30.907Z,8.16
2022-10-18T05:01:32.707Z,8.12
2022-10-18T05:02:34.705Z,8.46
2022-10-18T05:03:36.608Z,8.28
2022-10-18T05:04:38.242Z,8.23
2022-10-18T05:06:00.332Z,8.65
2022-10-18T05:07:02.934Z,8.25
2022-10-18T05:08:05.054Z,8.33
2022-10-18T05:09:06.708Z,8.47
2022-10-18T05:10:08.919Z,8.82
2022-10-18T05:12:17.117Z,8.86
2022-10-18T05:13:18.737Z,8.44
2022-10-18T05:14:20.413Z,8.58
2022-10-18T05:15:22.133Z,8.52
2022-10-18T05:16:23.763Z,9.61
2022-10-18T05:17:25.477Z,9.08
2022-10-18T05:18:27.316Z,8.34
2022-10-18T05:19:28.965Z,9.31
2022-10-18T05:20:30.794Z,9.26
2022-10-18T05:21:33.312Z,9.92
2022-10-18T05:22:35.265Z,11.08
2022-10-18T05:23:37.003Z,10.80
2022-10-18T05:24:38.689Z,9.79
2022-10-18T05:25:42.059Z,9.58
2022-10-18T05:26:43.660Z,9.73
2022-10-18T05:27:45.333Z,9.61
2022-10-18T05:28:47.011Z,9.19
2022-10-18T05:29:48.822Z,9.29
2022-10-18T05:30:50.492Z,9.21
2022-10-18T05:31:52.108Z,9.74
2022-10-18T05:32:53.830Z,9.25
2022-10-18T05:33:56.140Z,9.79
2022-10-18T05:34:57.786Z,9.64
2022-10-18T05:35:59.669Z,8.95
2022-10-18T05:37:01.424Z,9.63
2022-10-18T05:38:07.069Z,10.04
2022-10-18T05:39:08.756Z,9.67
2022-10-18T05:40:10.921Z,10.38
2022-10-18T05:41:12.720Z,10.08
2022-10-18T05:42:14.356Z,10.35
2022-10-18T05:43:17.707Z,10.23
2022-10-18T05:44:19.514Z,10.89
2022-10-18T05:45:21.141Z,10.81
2022-10-18T05:46:22.741Z,11.14
2022-10-18T05:47:24.471Z,10.84
2022-10-18T05:48:26.606Z,11.13
2022-10-18T05:49:28.326Z,11.27
2022-10-18T05:50:29.970Z,10.98
2022-10-18T05:51:31.672Z,10.73
2022-10-18T05:52:33.513Z,10.75
2022-10-18T05:53:37.075Z,11.18
2022-10-18T05:54:38.988Z,11.12
2022-10-18T05:55:40.647Z,11.45
2022-10-18T05:56:42.381Z,10.99
2022-10-18T05:57:44.023Z,10.99
2022-10-18T05:58:53.432Z,10.61
2022-10-18T05:59:55.079Z,10.79
2022-10-18T06:01:01.202Z,10.50
2022-10-18T06:02:03.039Z,11.16
2022-10-18T06:03:04.654Z,10.64
2022-10-18T06:04:07.181Z,10.57
2022-10-18T06:05:09.024Z,10.38
2022-10-18T06:06:12.836Z,9.94
2022-10-18T06:07:14.662Z,10.68
2022-10-18T06:08:16.347Z,9.52
2022-10-18T06:09:17.941Z,10.92
2022-10-18T06:10:19.593Z,10.51
2022-10-18T06:11:21.322Z,9.34
2022-10-18T06:12:23.285Z,9.53
2022-10-18T06:13:25.204Z,9.86
2022-10-18T06:14:26.833Z,9.68
2022-10-18T06:15:28.497Z,9.83
2022-10-18T06:16:32.666Z,10.36
2022-10-18T06:17:34.924Z,9.79
2022-10-18T06:18:37.278Z,10.26
2022-10-18T06:19:38.930Z,10.18
2022-10-18T06:20:40.558Z,9.67
2022-10-18T06:21:44.010Z,9.29
2022-10-18T06:22:45.607Z,9.75
2022-10-18T06:24:00.429Z,9.50
2022-10-18T06:25:02.092Z,9.91
2022-10-18T06:26:07.429Z,9.18
2022-10-18T06:27:09.491Z,8.95
2022-10-18T06:28:12.197Z,8.78
2022-10-18T06:29:14.447Z,9.25
2022-10-18T06:30:16.115Z,9.32
2022-10-18T06:31:18.411Z,9.64
2022-10-18T06:32:20.168Z,10.05
2022-10-18T06:33:21.840Z,10.04
2022-10-18T06:34:23.610Z,9.48
2022-10-18T06:35:25.202Z,10.14
2022-10-18T06:36:27.268Z,10.11
2022-10-18T06:37:30.463Z,10.29
2022-10-18T06:38:33.968Z,9.65
2022-10-18T06:39:35.805Z,9.56
2022-10-18T06:40:38.127Z,10.09
2022-10-18T06:41:39.783Z,9.13
2022-10-18T06:43:00.571Z,8.67
2022-10-18T06:44:13.734Z,8.99
2022-10-18T06:45:18.138Z,9.22
2022-10-18T06:46:19.852Z,9.32
2022-10-18T06:47:21.515Z,9.79
2022-10-18T06:48:24.221Z,9.63
2022-10-18T06:49:25.942Z,9.36
2022-10-18T06:50:27.712Z,9.46
2022-10-18T06:51:29.352Z,8.86
2022-10-18T06:52:31.202Z,9.93
2022-10-18T06:53:43.779Z,8.91
2022-10-18T06:54:50.270Z,9.10
2022-10-18T06:55:52.136Z,8.49
2022-10-18T06:56:56.802Z,8.60
2022-10-18T06:57:58.490Z,8.83
2022-10-18T06:59:00.151Z,8.96
2022-10-18T07:00:02.515Z,9.32
2022-10-18T07:01:08.192Z,9.59
2022-10-18T07:02:15.532Z,8.84
2022-10-18T07:03:17.230Z,9.34
2022-10-18T07:04:18.873Z,8.85
2022-10-18T07:05:20.538Z,8.66
2022-10-18T07:06:23.578Z,9.33
2022-10-18T07:07:25.202Z,8.88
2022-10-18T07:08:26.916Z,9.54
2022-10-18T07:09:28.555Z,9.30
2022-10-18T07:10:30.254Z,8.93
2022-10-18T07:11:31.906Z,9.19
2022-10-18T07:12:34.270Z,8.52
2022-10-18T07:13:35.891Z,9.13
2022-10-18T07:14:37.653Z,9.33
2022-10-18T07:15:39.558Z,9.57
2022-10-18T07:16:41.212Z,9.49
2022-10-18T07:17:45.146Z,8.68
2022-10-18T07:18:51.348Z,9.38
2022-10-18T07:19:53.119Z,9.27
2022-10-18T07:20:54.739Z,8.63
2022-10-18T07:21:56.590Z,8.70
2022-10-18T07:22:58.219Z,8.96
2022-10-18T07:23:59.881Z,9.01
2022-10-18T07:25:01.575Z,9.11
2022-10-18T07:26:12.362Z,9.09
2022-10-18T07:27:14.099Z,9.17
2022-10-18T07:28:15.765Z,9.52
2022-10-18T07:29:17.358Z,9.43
2022-10-18T07:30:19.081Z,9.81
2022-10-18T07:31:21.829Z,9.21
2022-10-18T07:32:23.534Z,9.48
2022-10-18T07:33:28.849Z,9.15
2022-10-18T07:34:30.742Z,9.86
2022-10-18T07:35:32.355Z,9.53
2022-10-18T07:36:35.080Z,9.16
2022-10-18T07:37:36.882Z,9.35
2022-10-18T07:38:39.017Z,9.66
2022-10-18T07:39:40.651Z,9.58
2022-10-18T07:40:42.238Z,9.62
2022-10-18T07:41:43.963Z,9.81
2022-10-18T07:42:45.644Z,9.80
2022-10-18T07:43:50.865Z,10.27
2022-10-18T07:44:52.870Z,10.47
2022-10-18T07:45:56.249Z,8.96
2022-10-18T07:46:58.308Z,10.23
2022-10-18T07:47:59.984Z,10.25
2022-10-18T07:49:01.811Z,10.12
2022-10-18T07:50:03.702Z,9.84
2022-10-18T07:51:06.108Z,9.12
2022-10-18T07:52:08.785Z,8.84
2022-10-18T07:53:10.465Z,9.66
2022-10-18T07:54:12.129Z,10.34
2022-10-18T07:55:13.850Z,9.87
2022-10-18T07:56:21.169Z,10.02
2022-10-18T07:57:23.507Z,9.91
2022-10-18T07:58:25.179Z,10.35
2022-10-18T07:59:26.933Z,10.07
2022-10-18T08:00:28.549Z,11.01
2022-10-18T08:01:30.332Z,10.23
2022-10-18T08:02:32.512Z,9.77
2022-10-18T08:03:35.326Z,9.53
2022-10-18T08:04:37.191Z,9.95
2022-10-18T08:05:38.808Z,10.44
2022-10-18T08:06:40.511Z,10.40
2022-10-18T08:07:42.271Z,10.68
2022-10-18T08:08:45.165Z,11.22
2022-10-18T08:09:46.776Z,11.36
2022-10-18T08:10:48.833Z,10.29
2022-10-18T08:11:50.461Z,11.17
2022-10-18T08:12:54.354Z,10.91
2022-10-18T08:13:55.969Z,12.34
2022-10-18T08:14:57.558Z,12.72
2022-10-18T08:16:01.739Z,11.47
2022-10-18T08:17:03.708Z,10.40
2022-10-18T08:18:05.400Z,10.95
2022-10-18T08:19:07.032Z,10.82
2022-10-18T08:20:12.401Z,11.26
2022-10-18T08:21:28.286Z,10.85
2022-10-18T08:22:29.898Z,10.34
2022-10-18T08:23:32.200Z,10.87
2022-10-18T08:24:33.838Z,10.35
2022-10-18T08:26:38.152Z,10.48
2022-10-18T08:27:39.752Z,10.52
2022-10-18T08:28:49.042Z,10.44
2022-10-18T08:29:55.962Z,11.00
2022-10-18T08:30:57.825Z,10.92
2022-10-18T08:31:59.459Z,10.50
2022-10-18T08:33:01.149Z,10.51
2022-10-18T08:34:02.831Z,10.93
2022-10-18T08:35:06.912Z,10.70
2022-10-18T08:36:13.658Z,11.09
2022-10-18T08:37:15.240Z,11.79
2022-10-18T08:38:18.903Z,11.42
2022-10-18T08:39:20.616Z,11.64
2022-10-18T08:40:24.791Z,11.96
2022-10-18T08:41:59.820Z,10.95
2022-10-18T08:43:22.761Z,11.52
2022-10-18T08:44:28.888Z,11.46
2022-10-18T08:45:48.690Z,11.80
2022-10-18T08:46:56.265Z,11.87
2022-10-18T08:47:58.579Z,11.25
2022-10-18T08:49:04.148Z,12.29
2022-10-18T08:50:16.763Z,11.97
2022-10-18T08:51:42.460Z,12.23
2022-10-18T08:53:15.015Z,12.70
2022-10-18T08:54:44.382Z,11.78
2022-10-18T08:55:52.537Z,12.79
2022-10-18T08:57:01.016Z,13.45
2022-10-18T08:58:13.126Z,12.21
2022-10-18T08:59:14.749Z,12.30
2022-10-18T09:00:19.569Z,12.37
2022-10-18T09:01:40.722Z,11.42
2022-10-18T09:02:54.370Z,13.30
2022-10-18T09:04:17.818Z,11.84
2022-10-18T09:05:40.216Z,11.84
2022-10-18T09:07:02.222Z,12.07
2022-10-18T09:08:16.660Z,11.68
2022-10-18T09:09:40.578Z,11.48
2022-10-18T09:12:51.747Z,12.19
2022-10-18T09:14:21.133Z,12.34
2022-10-18T09:15:47.174Z,12.34
2022-10-18T09:17:12.327Z,11.95
2022-10-18T09:18:31.681Z,12.43
2022-10-18T09:20:15.346Z,11.58
2022-10-18T09:21:32.148Z,12.66
2022-10-18T09:22:53.395Z,13.73
2022-10-18T09:24:10.879Z,12.42
2022-10-18T09:25:44.414Z,12.90
2022-10-18T09:26:49.783Z,13.62
2022-10-18T09:27:55.600Z,13.33
2022-10-18T09:29:26.477Z,12.88
2022-10-18T09:30:41.235Z,13.62
2022-10-18T09:32:15.521Z,13.15
2022-10-18T09:33:26.214Z,13.74
2022-10-18T09:34:52.574Z,13.80
2022-10-18T09:36:10.346Z,12.98
2022-10-18T09:37:19.984Z,13.67
2022-10-18T09:38:28.004Z,13.43
2022-10-18T09:39:38.094Z,13.64
2022-10-18T09:41:03.014Z,13.13
2022-10-18T09:42:19.385Z,13.93
2022-10-18T09:43:37.265Z,13.48
2022-10-18T09:44:50.388Z,13.54
2022-10-18T09:45:55.293Z,13.87
2022-10-18T09:47:16.935Z,13.80
2022-10-18T09:48:21.789Z,14.30
2022-10-18T09:49:29.841Z,15.07
2022-10-18T09:50:54.848Z,14.43
2022-10-18T09:52:03.717Z,13.43
2022-10-18T09:53:12.989Z,13.74
2022-10-18T09:54:31.771Z,14.56
2022-10-18T09:55:40.721Z,14.95
2022-10-18T09:56:57.228Z,15.04
2022-10-18T09:58:05.465Z,13.99
2022-10-18T09:59:31.520Z,14.23
2022-10-18T10:00:48.138Z,13.32
2022-10-18T10:01:49.800Z,13.88
2022-10-18T10:02:51.581Z,14.04
2022-10-18T10:03:53.594Z,14.32
2022-10-18T10:04:55.797Z,15.87
2022-10-18T10:06:12.376Z,14.81
2022-10-18T10:07:25.156Z,15.36
2022-10-18T10:08:34.262Z,15.07
2022-10-18T10:10:08.058Z,15.56
2022-10-18T10:11:37.893Z,15.31
2022-10-18T10:12:41.307Z,15.83
2022-10-18T10:13:42.942Z,16.74
2022-10-18T10:14:44.671Z,16.28
2022-10-18T10:15:54.368Z,16.68
2022-10-18T10:16:58.224Z,16.56
2022-10-18T10:18:06.940Z,16.50
2022-10-18T10:19:17.731Z,16.31
2022-10-18T10:20:23.479Z,15.59
2022-10-18T10:21:25.467Z,15.09
2022-10-18T10:22:39.138Z,16.11
2022-10-18T10:23:57.834Z,15.29
2022-10-18T10:24:59.654Z,15.06
2022-10-18T10:26:23.365Z,14.78
2022-10-18T10:27:32.935Z,13.46
2022-10-18T10:28:48.631Z,14.73
2022-10-18T10:29:56.495Z,14.20
2022-10-18T10:31:26.965Z,15.41
2022-10-18T10:32:43.178Z,15.07
2022-10-18T10:33:47.588Z,15.36
2022-10-18T10:34:50.566Z,14.86
2022-10-18T10:36:00.286Z,14.68
2022-10-18T10:37:02.669Z,14.44
2022-10-18T10:38:05.560Z,14.04
2022-10-18T10:39:18.777Z,14.14
2022-10-18T10:40:26.497Z,14.75
2022-10-18T10:42:50.315Z,14.56
2022-10-18T10:43:52.111Z,15.89
2022-10-18T10:44:55.576Z,16.46
2022-10-18T10:46:02.338Z,16.37
2022-10-18T10:47:06.274Z,16.60
2022-10-18T10:48:15.420Z,16.34
2022-10-18T10:51:00.732Z,16.63
2022-10-18T10:52:15.406Z,15.34
2022-10-18T10:53:28.325Z,15.22
2022-10-18T10:54:36.475Z,15.94
2022-10-18T10:55:38.124Z,15.93
2022-10-18T10:56:59.992Z,14.88
2022-10-18T10:58:01.996Z,16.06
2022-10-18T10:59:18.624Z,15.18
2022-10-18T11:00:41.509Z,16.26
2022-10-18T11:01:43.874Z,15.55
2022-10-18T11:02:59.085Z,16.29
2022-10-18T11:04:26.714Z,15.96
2022-10-18T11:05:31.399Z,15.91
2022-10-18T11:06:55.306Z,15.77
2022-10-18T11:08:02.786Z,15.22
2022-10-18T11:09:18.121Z,15.29
2022-10-18T11:10:26.534Z,15.66
2022-10-18T11:11:39.381Z,16.50
2022-10-18T11:12:45.269Z,16.36
2022-10-18T11:14:07.318Z,15.54
2022-10-18T11:15:30.078Z,16.25
2022-10-18T11:17:08.292Z,17.03
2022-10-18T11:18:27.119Z,15.90
2022-10-18T11:19:39.127Z,15.76
2022-10-18T11:20:49.030Z,16.77
2022-10-18T11:21:53.696Z,15.73
2022-10-18T11:23:12.630Z,15.50
2022-10-18T11:24:16.804Z,15.88
2022-10-18T11:25:25.183Z,15.86
2022-10-18T11:26:46.210Z,15.56
2022-10-18T11:27:57.321Z,16.64
2022-10-18T11:29:26.443Z,16.50
2022-10-18T11:30:55.417Z,16.89
2022-10-18T11:32:16.080Z,16.03
2022-10-18T11:33:50.166Z,16.32
2022-10-18T11:35:23.050Z,15.97
2022-10-18T11:36:36.580Z,16.40
2022-10-18T11:38:03.957Z,15.65
2022-10-18T11:39:16.919Z,16.25
2022-10-18T11:40:46.630Z,15.47
2022-10-18T11:42:00.342Z,16.40
2022-10-18T11:43:21.218Z,15.98
2022-10-18T11:44:38.260Z,15.23
2022-10-18T11:45:39.859Z,15.62
2022-10-18T11:47:02.744Z,15.67
2022-10-18T11:48:26.133Z,15.11
2022-10-18T11:50:05.206Z,16.01
2022-10-18T11:51:19.129Z,15.82
2022-10-18T11:52:29.366Z,15.18
2022-10-18T11:53:58.122Z,16.07
2022-10-18T11:55:56.173Z,16.58
2022-10-18T11:57:29.996Z,15.79
2022-10-18T11:58:56.546Z,15.70
2022-10-18T12:00:22.504Z,15.63
2022-10-18T12:01:31.121Z,16.65
2022-10-18T12:03:04.191Z,16.53
2022-10-18T12:04:18.267Z,15.48
2022-10-18T12:05:24.249Z,14.96
2022-10-18T12:06:34.017Z,15.07
2022-10-18T12:07:58.440Z,15.02
2022-10-18T12:09:08.118Z,15.94
2022-10-18T12:10:26.194Z,14.59
2022-10-18T12:11:52.318Z,16.23
2022-10-18T12:13:02.771Z,14.97
2022-10-18T12:14:17.314Z,15.64
2022-10-18T12:15:24.352Z,15.43
2022-10-18T12:16:50.358Z,15.63
2022-10-18T12:18:01.101Z,14.03
2022-10-18T12:19:16.255Z,15.77
2022-10-18T12:20:25.700Z,15.30
2022-10-18T12:21:32.467Z,15.65
2022-10-18T12:22:45.674Z,14.81
2022-10-18T12:23:57.443Z,15.52
2022-10-18T12:24:59.765Z,15.10
2022-10-18T12:26:05.866Z,15.31
2022-10-18T12:27:15.285Z,14.52
2022-10-18T12:28:35.052Z,15.40
2022-10-18T12:29:45.489Z,15.42
2022-10-18T12:31:08.325Z,15.29
2022-10-18T12:32:22.402Z,15.02
2022-10-18T12:33:30.759Z,14.82
2022-10-18T12:34:44.187Z,14.85
2022-10-18T12:36:00.664Z,15.94
2022-10-18T12:37:21.159Z,14.73
2022-10-18T12:38:31.740Z,15.54
2022-10-18T12:39:50.476Z,15.34
2022-10-18T12:41:05.219Z,15.38
2022-10-18T12:42:19.620Z,15.11
2022-10-18T12:43:36.796Z,14.76
2022-10-18T12:44:38.513Z,14.67
2022-10-18T12:45:48.978Z,15.42
2022-10-18T12:46:55.120Z,16.79
2022-10-18T12:48:07.881Z,16.36
2022-10-18T12:49:13.549Z,16.39
2022-10-18T12:50:34.817Z,16.51
2022-10-18T12:51:51.741Z,16.14
2022-10-18T12:53:05.125Z,14.75
2022-10-18T12:54:12.842Z,16.61
2022-10-18T12:55:20.298Z,16.01
2022-10-18T12:56:27.718Z,16.19
2022-10-18T12:57:52.269Z,15.70
2022-10-18T12:59:15.797Z,14.92
2022-10-18T13:00:43.220Z,15.66
2022-10-18T13:01:50.866Z,15.30
2022-10-18T13:03:31.118Z,16.73
2022-10-18T13:04:36.419Z,15.54
2022-10-18T13:05:57.840Z,15.94
2022-10-18T13:07:05.285Z,16.04
2022-10-18T13:08:30.307Z,17.22
2022-10-18T13:09:35.579Z,15.42
2022-10-18T13:10:38.202Z,16.22
2022-10-18T13:11:40.394Z,16.05
2022-10-18T13:12:41.965Z,15.92
2022-10-18T13:13:55.591Z,16.09
2022-10-18T13:15:33.431Z,15.24
2022-10-18T13:16:50.840Z,15.31
2022-10-18T13:17:59.120Z,16.05
2022-10-18T13:19:22.002Z,15.33
2022-10-18T13:20:53.942Z,16.34
2022-10-18T13:22:36.803Z,16.84
2022-10-18T13:24:16.369Z,17.58
2022-10-18T13:25:29.962Z,16.26
2022-10-18T13:27:34.874Z,16.05
2022-10-18T13:28:53.852Z,16.01
2022-10-18T13:30:08.463Z,16.28
2022-10-18T13:31:28.694Z,16.82
2022-10-18T13:32:36.398Z,15.90
2022-10-18T13:33:41.813Z,16.00
2022-10-18T13:34:44.046Z,15.67
2022-10-18T13:35:51.885Z,15.37
2022-10-18T13:37:03.216Z,17.35
2022-10-18T13:38:29.302Z,16.75
2022-10-18T13:39:32.614Z,15.73
2022-10-18T13:40:34.601Z,15.51
2022-10-18T13:41:42.077Z,16.35
2022-10-18T13:42:49.320Z,15.83
2022-10-18T13:43:56.671Z,16.02
2022-10-18T13:45:33.531Z,15.83
2022-10-18T13:46:36.221Z,16.12
2022-10-18T13:47:38.588Z,16.01
2022-10-18T13:48:40.125Z,15.50
2022-10-18T13:50:03.511Z,17.53
2022-10-18T13:51:35.920Z,18.16
2022-10-18T13:53:15.333Z,20.64
2022-10-18T13:54:47.655Z,21.19
2022-10-18T13:56:04.965Z,17.29
2022-10-18T13:57:31.225Z,16.27
2022-10-18T13:58:53.797Z,15.74
2022-10-18T14:00:03.830Z,15.83
2022-10-18T14:01:16.347Z,15.68
2022-10-18T14:02:58.675Z,16.07
2022-10-18T14:04:35.547Z,16.21
2022-10-18T14:05:52.185Z,15.71
2022-10-18T14:07:02.598Z,15.94
2022-10-18T14:08:15.118Z,15.68
2022-10-18T14:11:04.479Z,14.98
2022-10-18T14:12:22.902Z,16.06
2022-10-18T14:13:31.422Z,15.42
2022-10-18T14:14:43.158Z,14.48
2022-10-18T14:15:51.592Z,15.33
2022-10-18T14:17:15.503Z,15.85
2022-10-18T14:18:31.972Z,15.85
2022-10-18T14:19:44.011Z,16.09
2022-10-18T14:21:12.343Z,15.97
2022-10-18T14:22:36.573Z,15.80
2022-10-18T14:23:44.721Z,15.79
2022-10-18T14:24:54.259Z,15.36
2022-10-18T14:26:08.380Z,16.83
2022-10-18T14:27:17.410Z,16.16
2022-10-18T14:28:27.286Z,16.27
2022-10-18T14:29:33.348Z,16.19
2022-10-18T14:30:36.220Z,15.35
2022-10-18T14:31:38.009Z,15.83
2022-10-18T14:32:46.355Z,15.75
2022-10-18T14:33:57.598Z,16.98
2022-10-18T14:35:30.615Z,15.48
2022-10-18T14:36:26.261Z,16.88
2022-10-18T14:37:34.247Z,16.59
2022-10-18T14:38:45.767Z,16.68
2022-10-18T14:39:47.509Z,16.37
2022-10-18T14:40:49.170Z,16.08
2022-10-18T14:41:55.819Z,16.30
2022-10-18T14:43:03.305Z,16.46
2022-10-18T14:44:19.447Z,16.38
2022-10-18T14:45:23.069Z,17.21
2022-10-18T14:46:29.041Z,16.46
2022-10-18T14:47:37.331Z,15.25
2022-10-18T14:48:39.012Z,16.15
2022-10-18T14:49:45.785Z,16.41
2022-10-18T14:51:00.262Z,15.92
2022-10-18T14:52:02.329Z,17.00
2022-10-18T14:53:07.112Z,16.29
2022-10-18T14:54:26.227Z,21.77
2022-10-18T14:55:33.094Z,20.54
2022-10-18T14:56:41.553Z,18.17
2022-10-18T14:57:43.399Z,17.94
2022-10-18T14:58:45.171Z,17.51
2022-10-18T14:59:53.760Z,19.49
2022-10-18T15:00:55.818Z,18.85
2022-10-18T15:02:02.075Z,22.13
2022-10-18T15:03:08.259Z,21.92
2022-10-18T15:04:11.917Z,21.69
2022-10-18T15:05:16.557Z,21.20
2022-10-18T15:06:20.151Z,20.44